OPLA/LHE METAR and TAF weather

Enter ICAO airport designator
Station Type Date Time Source
OPLA METAR 2019/08/19 01:25 UTC NOAA

OPLA 190125Z 36012KT 4000 FU SCT040 SCT100 25/22 Q1006 RMK QFE981 RMK A29.71


Station Type Date Time Source
OPLA Decoded METAR 2019/08/19 01:25 UTC NOAA

Station name not available
Aug 18, 2019 - 09:25 PM EDT / 2019.08.19 0125 UTC
Wind: from the N (360 degrees) at 14 MPH (12 KT):0
Visibility: 2 mile(s):0
Sky conditions: partly cloudy
Weather: smoke
Temperature: 77 F (25 C)
Dew Point: 71 F (22 C)
Relative Humidity: 83%
Pressure (altimeter): 29.71 in. Hg (1006 hPa)
ob: OPLA 190125Z 36012KT 4000 FU SCT040 SCT100 25/22 Q1006 RMK QFE981 RMK A29.71
cycle: 1

Station Type Date Time Source
OPLA TAF 2019/08/18 18:16 UTC NOAA

TAF OPLA 181545Z 1818/1924 12006KT 4000 FU FEW040 SCT100 TX36/1910Z TN25/1900Z
TEMPO 1908/1912 33015G40KT 1000 TSRA FEW030CB SCT040 BKN100
FM191400 15003KT 4000 FU SCT100

Example: see airport list